Thursday, June 30, 2016
10:25 UTC
  |  Log In   |  Register Free
Airport Search:

Lincoln Airport
(KLNK)

FAA data valid effective May 26 2016 - Jul 21 2016 (unless otherwise noted).

 
 
 
 
 
 
 
 
 
 
 
 
 
 
Current Aviation Weather for KLNK

Weather Summary


The most recent METAR observation for LNK was updated at: 12:54 UTC
METAR for KLNK is not available. Closest METAR is for KAHQ
KLNK  (most recent observation was updatred at 30:09 UTC)
300954Z AUTO 00000KT 10SM CLR 22/19 A2995 RMK AO2 SLP129 T02170194

KAHQ  (24.6 nm SW)   (most recent observation was updated at 30:10 UTC)
301015Z AUTO 00000KT 10SM CLR 20/19 A2994 RMK AO2 T02010189

KBIE  (33.0 nm NW)   (most recent observation was updated at 30:10 UTC)
301015Z AUTO 00000KT 10SM CLR 20/19 A2994 RMK AO2 T02020191

TAF for KLNK is not available.
KLNK
300520Z 3006/0106 15006KT P6SM SCT200 FM301100 00000KT P6SM SCT150 BKN200 FM302000 36006KT P6SM SCT060 SCT250 PROB30 3021/3024 4SM -TSRA BKN060CB

GlobalAir.com is loading additional information.
 Current Weather at LNK
73.0 F° (22.8 C°)

Northwest winds at 5.8 mph
Pressure:
29.97 in
Humidity:
84%
Wind:
Northwest at 5.8 mph
Dew Point:
68.0 F° (20.0 C°)
Visibility:
10.00 mi
LNK NOAA Radar




Find All Airport Services Find A Hotel Find A Rental Car Find A Golf Course Find A Restaurant $100 Hamburger



Airport Weather Forecast for KLNK

Translated METAR for KLNK (0954 UTC)
METAR:
KLNK 300954Z AUTO 00000KT 10SM CLR 22/19 A2995 RMK AO2 SLP129 T02170194
Conditions at:
KLNK (Lincoln, NE) observed 0954 UTC 30 June 2016
Temperature:
22°C (71.6°F)
Dewpoint:
19°C (66.2°F) [RH = 83.1]
Pressure:
29.95 inches Hg (1014.2 mb)
pressure at sea level is 129 in Hg
Winds:
from the N (000 degrees) at 0 mph (0 knots: 0 m/s)
Visibility:
10 mile(s)
Ceiling:
at least 12,000 feet AGL
Clouds:
Clear below 12,000 feet AGL
Remarks:
site is un-manned
site is automated and HAS a precipitation sensor

Translated TAF for KLNK (Lincoln, NE) (0520 UTC)
TAF text:
KLNK 300520Z 3006/0106 15006KT P6SM SCT200
Forecast period:
Thursday Jun 30 2016 06:00 UTC - Thursday Jun 30 2016 06:00 UTC
Forecast type:
FROM: standard forecast or significant change
Winds:
from the SSE (150 degrees) at 6.9 mph (6 knots: 3.1 m/s)
Visibility:
6 or more mile(s) (9.7+ km)
Ceiling:
at least 12,000 feet AGL
Clouds:
Scattered Clouds at 20,000 feet AGL
Weather:
no significant weather observed at this time
TAF text:
FM301100 00000KT P6SM SCT150 BKN200
Forecast period:
Thursday Jun 30 2016 11:00 UTC - Thursday Jun 30 2016 20:00 UTC
Forecast type:
FROM: standard forecast or significant change
Winds:
from the N (000 degrees) at 0 mph (0 knots: 0 m/s)
Visibility:
6 or more mile(s) (9.7+ km)
Ceiling:
20,000 feet AGL
Clouds:
Scattered Clouds at 15,000 feet AGL
Broken Cloud Cover at 20,000 feet AGL
Weather:
no significant weather observed at this time
TAF text:
FM302000 36006KT P6SM SCT060 SCT250 PROB30 3021/3024 4SM -TSRA BKN060CB
Forecast period:
Thursday Jun 30 2016 20:00 UTC - Thursday Jun 30 2016 06:00 UTC
Forecast type:
FROM: standard forecast or significant change
Winds:
from the N (360 degrees) at 6.9 mph (6 knots: 3.1 m/s)
Visibility:
6 or more mile(s) (9.7+ km)4 mile(s) (6.4 km)
Ceiling:
at least 12,000 feet AGL
Clouds:
Scattered Clouds at 6,000 feet AGL
Scattered Clouds at 25,000 feet AGL
Weather:
Moderate Partial
FBO's on the Field
FBO Company Facility Photos Services Transportation Aviation Fuel Prices: Prices include tax
Catering Weather Repair Courtesy Rental Type 100LL JetA JetA+ MOGAS 8087
 
Duncan Aviation

This FBO has not yet been rated
FS:Avfuel
Last Updated: Jun-28
Login to update fuel prices
SS:
Contact Duncan AviationMore FBO Information
 
Silverhawk Aviation

This FBO has not yet been rated
FS:Phillips 66
Last Updated: Jun-28
Login to update fuel prices
SS:
Contact Silverhawk AviationMore FBO Information
 
Add another FBO Facility Photos Catering Weather Repair Courtesy Rental Type 100LL JetA JetA+ MOGAS 8087
Services Transportation Aviation Fuel Prices: Prices include tax


model-print
model-print
model-print
model-print